sensor_id;sensor_type;location;lat;lon;timestamp;P1;durP1;ratioP1;P2;durP2;ratioP2
70342;SDS011;57767;42.068;24.752;2023-03-01T00:00:00;8.68;;;6.85;;
70342;SDS011;57767;42.068;24.752;2023-03-01T00:01:06;9.00;;;7.78;;
70342;SDS011;57767;42.068;24.752;2023-03-01T00:02:09;8.30;;;7.32;;
70342;SDS011;57767;42.068;24.752;2023-03-01T00:03:11;8.70;;;7.38;;
70342;SDS011;57767;42.068;24.752;2023-03-01T00:04:13;9.88;;;8.02;;
70342;SDS011;57767;42.068;24.752;2023-03-01T00:05:14;10.15;;;7.43;;
70342;SDS011;57767;42.068;24.752;2023-03-01T00:06:16;7.70;;;6.70;;
70342;SDS011;57767;42.068;24.752;2023-03-01T00:07:19;8.63;;;7.05;;
70342;SDS011;57767;42.068;24.752;2023-03-01T00:08:20;7.15;;;6.30;;
70342;SDS011;57767;42.068;24.752;2023-03-01T00:09:22;8.30;;;6.65;;
70342;SDS011;57767;42.068;24.752;2023-03-01T00:10:24;6.25;;;5.65;;
70342;SDS011;57767;42.068;24.752;2023-03-01T00:11:28;5.72;;;5.18;;
70342;SDS011;57767;42.068;24.752;2023-03-01T00:12:31;5.95;;;5.07;;
70342;SDS011;57767;42.068;24.752;2023-03-01T00:13:33;5.90;;;5.25;;
70342;SDS011;57767;42.068;24.752;2023-03-01T00:14:36;5.70;;;5.15;;
70342;SDS011;57767;42.068;24.752;2023-03-01T00:15:38;5.10;;;4.60;;
70342;SDS011;57767;42.068;24.752;2023-03-01T00:16:43;5.25;;;4.25;;
70342;SDS011;57767;42.068;24.752;2023-03-01T00:17:46;6.93;;;5.35;;
70342;SDS011;57767;42.068;24.752;2023-03-01T00:18:48;5.68;;;4.63;;
70342;SDS011;57767;42.068;24.752;2023-03-01T00:19:50;6.00;;;5.25;;
70342;SDS011;57767;42.068;24.752;2023-03-01T00:20:54;9.50;;;5.70;;
70342;SDS011;57767;42.068;24.752;2023-03-01T00:21:57;6.07;;;5.35;;
70342;SDS011;57767;42.068;24.752;2023-03-01T00:22:58;7.07;;;6.25;;
70342;SDS011;57767;42.068;24.752;2023-03-01T00:24:00;6.65;;;5.97;;
70342;SDS011;57767;42.068;24.752;2023-03-01T00:25:03;7.00;;;5.97;;
70342;SDS011;57767;42.068;24.752;2023-03-01T00:26:06;7.93;;;6.60;;
70342;SDS011;57767;42.068;24.752;2023-03-01T00:27:10;8.30;;;6.88;;
70342;SDS011;57767;42.068;24.752;2023-03-01T00:28:12;7.85;;;6.70;;
70342;SDS011;57767;42.068;24.752;2023-03-01T00:29:13;7.72;;;6.40;;
70342;SDS011;57767;42.068;24.752;2023-03-01T00:30:15;7.82;;;6.35;;
70342;SDS011;57767;42.068;24.752;2023-03-01T00:31:19;7.72;;;6.50;;
70342;SDS011;57767;42.068;24.752;2023-03-01T00:32:22;7.22;;;6.35;;
70342;SDS011;57767;42.068;24.752;2023-03-01T00:33:24;7.40;;;6.28;;
70342;SDS011;57767;42.068;24.752;2023-03-01T00:34:26;8.13;;;6.60;;
70342;SDS011;57767;42.068;24.752;2023-03-01T00:35:27;7.38;;;6.55;;
70342;SDS011;57767;42.068;24.752;2023-03-01T00:36:33;9.93;;;7.28;;
70342;SDS011;57767;42.068;24.752;2023-03-01T00:37:37;7.07;;;6.00;;
70342;SDS011;57767;42.068;24.752;2023-03-01T00:38:40;8.02;;;6.43;;
70342;SDS011;57767;42.068;24.752;2023-03-01T00:39:46;7.95;;;6.60;;
70342;SDS011;57767;42.068;24.752;2023-03-01T00:40:47;7.88;;;6.13;;
70342;SDS011;57767;42.068;24.752;2023-03-01T00:41:49;6.15;;;5.50;;
70342;SDS011;57767;42.068;24.752;2023-03-01T00:42:51;7.43;;;6.15;;
70342;SDS011;57767;42.068;24.752;2023-03-01T00:43:53;7.63;;;5.53;;
70342;SDS011;57767;42.068;24.752;2023-03-01T00:44:56;6.55;;;5.05;;
70342;SDS011;57767;42.068;24.752;2023-03-01T00:46:00;6.00;;;5.40;;
70342;SDS011;57767;42.068;24.752;2023-03-01T00:47:02;6.10;;;5.50;;
70342;SDS011;57767;42.068;24.752;2023-03-01T00:48:04;6.85;;;6.00;;
70342;SDS011;57767;42.068;24.752;2023-03-01T00:49:06;6.53;;;5.82;;
70342;SDS011;57767;42.068;24.752;2023-03-01T00:50:08;6.18;;;5.53;;
70342;SDS011;57767;42.068;24.752;2023-03-01T00:52:20;5.95;;;5.45;;
70342;SDS011;57767;42.068;24.752;2023-03-01T00:53:22;6.07;;;5.47;;
70342;SDS011;57767;42.068;24.752;2023-03-01T00:54:24;6.28;;;5.68;;
70342;SDS011;57767;42.068;24.752;2023-03-01T00:55:25;6.03;;;5.40;;
70342;SDS011;57767;42.068;24.752;2023-03-01T00:56:28;6.47;;;5.88;;
70342;SDS011;57767;42.068;24.752;2023-03-01T00:57:30;6.50;;;5.90;;
70342;SDS011;57767;42.068;24.752;2023-03-01T00:58:32;6.22;;;5.63;;
70342;SDS011;57767;42.068;24.752;2023-03-01T00:59:34;7.00;;;6.30;;
70342;SDS011;57767;42.068;24.752;2023-03-01T01:00:36;5.72;;;5.22;;
70342;SDS011;57767;42.068;24.752;2023-03-01T01:01:38;6.70;;;6.00;;
70342;SDS011;57767;42.068;24.752;2023-03-01T01:02:40;8.13;;;5.72;;
70342;SDS011;57767;42.068;24.752;2023-03-01T01:03:43;6.60;;;5.93;;
70342;SDS011;57767;42.068;24.752;2023-03-01T01:04:46;7.05;;;6.35;;
70342;SDS011;57767;42.068;24.752;2023-03-01T01:05:48;6.43;;;5.80;;
70342;SDS011;57767;42.068;24.752;2023-03-01T01:06:50;7.00;;;6.30;;
70342;SDS011;57767;42.068;24.752;2023-03-01T01:07:52;7.70;;;6.93;;
70342;SDS011;57767;42.068;24.752;2023-03-01T01:08:54;6.95;;;6.25;;
70342;SDS011;57767;42.068;24.752;2023-03-01T01:09:56;7.40;;;6.70;;
70342;SDS011;57767;42.068;24.752;2023-03-01T01:10:58;6.45;;;5.85;;
70342;SDS011;57767;42.068;24.752;2023-03-01T01:12:00;7.10;;;6.38;;
70342;SDS011;57767;42.068;24.752;2023-03-01T01:13:02;7.53;;;6.82;;
70342;SDS011;57767;42.068;24.752;2023-03-01T01:14:04;7.28;;;6.57;;
70342;SDS011;57767;42.068;24.752;2023-03-01T01:15:06;8.32;;;7.30;;
70342;SDS011;57767;42.068;24.752;2023-03-01T01:16:08;7.72;;;6.93;;
70342;SDS011;57767;42.068;24.752;2023-03-01T01:17:10;7.13;;;6.47;;
70342;SDS011;57767;42.068;24.752;2023-03-01T01:18:12;6.93;;;6.28;;
70342;SDS011;57767;42.068;24.752;2023-03-01T01:19:14;6.80;;;6.20;;
70342;SDS011;57767;42.068;24.752;2023-03-01T01:20:16;7.70;;;6.40;;
70342;SDS011;57767;42.068;24.752;2023-03-01T01:21:20;7.22;;;6.53;;
70342;SDS011;57767;42.068;24.752;2023-03-01T01:22:23;6.65;;;6.05;;
70342;SDS011;57767;42.068;24.752;2023-03-01T01:23:24;7.30;;;6.57;;
70342;SDS011;57767;42.068;24.752;2023-03-01T01:24:26;7.63;;;6.68;;
70342;SDS011;57767;42.068;24.752;2023-03-01T01:25:28;7.22;;;6.53;;
70342;SDS011;57767;42.068;24.752;2023-03-01T01:26:31;7.78;;;6.93;;
70342;SDS011;57767;42.068;24.752;2023-03-01T01:27:34;7.65;;;6.85;;
70342;SDS011;57767;42.068;24.752;2023-03-01T01:28:36;9.07;;;6.78;;
70342;SDS011;57767;42.068;24.752;2023-03-01T01:29:38;7.70;;;6.80;;
70342;SDS011;57767;42.068;24.752;2023-03-01T01:30:40;7.60;;;6.80;;
70342;SDS011;57767;42.068;24.752;2023-03-01T01:31:43;8.40;;;7.60;;
70342;SDS011;57767;42.068;24.752;2023-03-01T01:32:45;7.85;;;7.13;;
70342;SDS011;57767;42.068;24.752;2023-03-01T01:33:46;9.35;;;7.70;;
70342;SDS011;57767;42.068;24.752;2023-03-01T01:34:48;8.48;;;7.43;;
70342;SDS011;57767;42.068;24.752;2023-03-01T01:35:50;8.82;;;7.93;;
70342;SDS011;57767;42.068;24.752;2023-03-01T01:36:52;10.68;;;8.23;;
70342;SDS011;57767;42.068;24.752;2023-03-01T01:37:55;9.55;;;8.45;;
70342;SDS011;57767;42.068;24.752;2023-03-01T01:38:57;10.07;;;8.18;;
70342;SDS011;57767;42.068;24.752;2023-03-01T01:39:59;8.77;;;7.88;;
70342;SDS011;57767;42.068;24.752;2023-03-01T01:41:02;9.50;;;8.25;;
70342;SDS011;57767;42.068;24.752;2023-03-01T01:42:04;9.50;;;8.48;;
70342;SDS011;57767;42.068;24.752;2023-03-01T01:43:08;9.10;;;8.02;;
70342;SDS011;57767;42.068;24.752;2023-03-01T01:46:31;10.00;;;9.00;;
70342;SDS011;57767;42.068;24.752;2023-03-01T01:47:35;11.05;;;9.65;;
70342;SDS011;57767;42.068;24.752;2023-03-01T01:48:39;10.70;;;9.48;;
70342;SDS011;57767;42.068;24.752;2023-03-01T01:49:49;11.75;;;9.77;;
70342;SDS011;57767;42.068;24.752;2023-03-01T01:50:59;12.73;;;10.65;;
70342;SDS011;57767;42.068;24.752;2023-03-01T01:53:24;10.82;;;8.88;;
70342;SDS011;57767;42.068;24.752;2023-03-01T01:54:32;12.82;;;10.43;;
70342;SDS011;57767;42.068;24.752;2023-03-01T01:55:45;11.02;;;9.13;;
70342;SDS011;57767;42.068;24.752;2023-03-01T01:56:52;12.00;;;10.25;;
70342;SDS011;57767;42.068;24.752;2023-03-01T01:57:59;11.90;;;9.70;;
70342;SDS011;57767;42.068;24.752;2023-03-01T01:59:06;11.68;;;9.82;;
70342;SDS011;57767;42.068;24.752;2023-03-01T02:00:18;10.75;;;9.65;;
70342;SDS011;57767;42.068;24.752;2023-03-01T02:01:22;9.95;;;8.95;;
70342;SDS011;57767;42.068;24.752;2023-03-01T02:02:24;9.98;;;8.45;;
70342;SDS011;57767;42.068;24.752;2023-03-01T02:03:28;10.35;;;9.25;;
70342;SDS011;57767;42.068;24.752;2023-03-01T02:04:35;11.02;;;8.57;;
70342;SDS011;57767;42.068;24.752;2023-03-01T02:05:39;8.73;;;7.82;;
70342;SDS011;57767;42.068;24.752;2023-03-01T02:06:58;9.38;;;8.38;;
70342;SDS011;57767;42.068;24.752;2023-03-01T02:08:05;8.77;;;7.80;;
70342;SDS011;57767;42.068;24.752;2023-03-01T02:09:08;11.15;;;8.23;;
70342;SDS011;57767;42.068;24.752;2023-03-01T02:10:14;9.25;;;8.30;;
70342;SDS011;57767;42.068;24.752;2023-03-01T02:11:16;13.55;;;8.40;;
70342;SDS011;57767;42.068;24.752;2023-03-01T02:12:20;9.43;;;8.05;;
70342;SDS011;57767;42.068;24.752;2023-03-01T02:13:26;10.20;;;7.97;;
70342;SDS011;57767;42.068;24.752;2023-03-01T02:14:28;8.98;;;7.38;;
70342;SDS011;57767;42.068;24.752;2023-03-01T02:15:33;9.45;;;8.45;;
70342;SDS011;57767;42.068;24.752;2023-03-01T02:16:36;9.88;;;8.13;;
70342;SDS011;57767;42.068;24.752;2023-03-01T02:17:38;8.40;;;7.50;;
70342;SDS011;57767;42.068;24.752;2023-03-01T02:18:40;9.85;;;8.07;;
70342;SDS011;57767;42.068;24.752;2023-03-01T02:22:01;9.48;;;8.57;;
70342;SDS011;57767;42.068;24.752;2023-03-01T02:23:17;8.27;;;7.47;;
70342;SDS011;57767;42.068;24.752;2023-03-01T02:24:22;8.40;;;7.38;;
70342;SDS011;57767;42.068;24.752;2023-03-01T02:25:35;9.32;;;8.32;;
70342;SDS011;57767;42.068;24.752;2023-03-01T02:26:40;8.50;;;7.65;;
70342;SDS011;57767;42.068;24.752;2023-03-01T02:28:49;9.35;;;8.45;;
70342;SDS011;57767;42.068;24.752;2023-03-01T02:29:51;10.80;;;7.97;;
70342;SDS011;57767;42.068;24.752;2023-03-01T02:30:53;9.23;;;8.32;;
70342;SDS011;57767;42.068;24.752;2023-03-01T02:32:14;11.10;;;7.85;;
70342;SDS011;57767;42.068;24.752;2023-03-01T02:33:17;9.00;;;7.72;;
70342;SDS011;57767;42.068;24.752;2023-03-01T02:34:20;9.55;;;8.27;;
70342;SDS011;57767;42.068;24.752;2023-03-01T02:35:23;9.38;;;8.48;;
70342;SDS011;57767;42.068;24.752;2023-03-01T02:36:28;8.98;;;7.95;;
70342;SDS011;57767;42.068;24.752;2023-03-01T02:37:33;9.30;;;8.35;;
70342;SDS011;57767;42.068;24.752;2023-03-01T02:38:37;8.35;;;7.55;;
70342;SDS011;57767;42.068;24.752;2023-03-01T02:39:39;7.95;;;7.15;;
70342;SDS011;57767;42.068;24.752;2023-03-01T02:40:45;8.70;;;7.80;;
70342;SDS011;57767;42.068;24.752;2023-03-01T02:41:48;8.38;;;7.55;;
70342;SDS011;57767;42.068;24.752;2023-03-01T02:42:53;11.20;;;8.00;;
70342;SDS011;57767;42.068;24.752;2023-03-01T02:43:57;11.35;;;8.25;;
70342;SDS011;57767;42.068;24.752;2023-03-01T02:45:00;8.40;;;7.55;;
70342;SDS011;57767;42.068;24.752;2023-03-01T02:46:04;9.05;;;7.82;;
70342;SDS011;57767;42.068;24.752;2023-03-01T02:47:08;8.05;;;7.25;;
70342;SDS011;57767;42.068;24.752;2023-03-01T02:48:11;9.32;;;8.15;;
70342;SDS011;57767;42.068;24.752;2023-03-01T02:49:20;8.93;;;8.00;;
70342;SDS011;57767;42.068;24.752;2023-03-01T02:55:14;10.60;;;8.90;;
70342;SDS011;57767;42.068;24.752;2023-03-01T02:56:10;12.43;;;9.48;;
70342;SDS011;57767;42.068;24.752;2023-03-01T02:57:14;10.35;;;9.25;;
70342;SDS011;57767;42.068;24.752;2023-03-01T02:58:16;10.98;;;9.35;;
70342;SDS011;57767;42.068;24.752;2023-03-01T02:59:22;12.05;;;10.05;;
70342;SDS011;57767;42.068;24.752;2023-03-01T03:00:34;10.95;;;9.85;;
70342;SDS011;57767;42.068;24.752;2023-03-01T03:01:41;10.93;;;9.52;;
70342;SDS011;57767;42.068;24.752;2023-03-01T03:02:43;11.20;;;9.60;;
70342;SDS011;57767;42.068;24.752;2023-03-01T03:03:45;12.57;;;9.70;;
70342;SDS011;57767;42.068;24.752;2023-03-01T03:04:47;10.48;;;9.02;;
70342;SDS011;57767;42.068;24.752;2023-03-01T03:05:49;12.85;;;10.05;;
70342;SDS011;57767;42.068;24.752;2023-03-01T03:06:50;11.98;;;9.82;;
70342;SDS011;57767;42.068;24.752;2023-03-01T03:07:52;10.60;;;9.52;;
70342;SDS011;57767;42.068;24.752;2023-03-01T03:08:54;10.80;;;9.55;;
70342;SDS011;57767;42.068;24.752;2023-03-01T03:09:56;11.25;;;10.05;;
70342;SDS011;57767;42.068;24.752;2023-03-01T03:10:58;11.55;;;9.55;;
70342;SDS011;57767;42.068;24.752;2023-03-01T03:12:00;11.25;;;9.93;;
70342;SDS011;57767;42.068;24.752;2023-03-01T03:13:03;11.18;;;9.70;;
70342;SDS011;57767;42.068;24.752;2023-03-01T03:14:09;10.93;;;9.73;;
70342;SDS011;57767;42.068;24.752;2023-03-01T03:15:13;11.10;;;9.38;;
70342;SDS011;57767;42.068;24.752;2023-03-01T03:16:15;13.48;;;10.70;;
70342;SDS011;57767;42.068;24.752;2023-03-01T03:17:17;11.45;;;9.40;;
70342;SDS011;57767;42.068;24.752;2023-03-01T03:18:19;11.23;;;9.93;;
70342;SDS011;57767;42.068;24.752;2023-03-01T03:19:21;12.82;;;10.38;;
70342;SDS011;57767;42.068;24.752;2023-03-01T03:20:25;12.75;;;10.15;;
70342;SDS011;57767;42.068;24.752;2023-03-01T03:21:29;11.60;;;10.40;;
70342;SDS011;57767;42.068;24.752;2023-03-01T03:22:31;11.32;;;10.13;;
70342;SDS011;57767;42.068;24.752;2023-03-01T03:23:35;12.18;;;10.25;;
70342;SDS011;57767;42.068;24.752;2023-03-01T03:24:37;14.88;;;11.15;;
70342;SDS011;57767;42.068;24.752;2023-03-01T03:25:39;12.50;;;10.82;;
70342;SDS011;57767;42.068;24.752;2023-03-01T03:26:41;13.15;;;10.38;;
70342;SDS011;57767;42.068;24.752;2023-03-01T03:27:43;10.07;;;9.00;;
70342;SDS011;57767;42.068;24.752;2023-03-01T03:28:46;11.15;;;9.38;;
70342;SDS011;57767;42.068;24.752;2023-03-01T03:29:48;11.48;;;9.77;;
70342;SDS011;57767;42.068;24.752;2023-03-01T03:30:50;11.93;;;10.05;;
70342;SDS011;57767;42.068;24.752;2023-03-01T03:31:52;12.30;;;10.23;;
70342;SDS011;57767;42.068;24.752;2023-03-01T03:32:54;11.85;;;10.27;;
70342;SDS011;57767;42.068;24.752;2023-03-01T03:33:56;12.20;;;10.07;;
70342;SDS011;57767;42.068;24.752;2023-03-01T03:35:00;11.95;;;10.43;;
70342;SDS011;57767;42.068;24.752;2023-03-01T03:36:02;11.07;;;9.57;;
70342;SDS011;57767;42.068;24.752;2023-03-01T03:37:04;11.88;;;9.52;;
70342;SDS011;57767;42.068;24.752;2023-03-01T03:39:27;11.05;;;8.95;;
70342;SDS011;57767;42.068;24.752;2023-03-01T03:40:31;11.88;;;10.00;;
70342;SDS011;57767;42.068;24.752;2023-03-01T03:41:34;11.73;;;10.07;;
70342;SDS011;57767;42.068;24.752;2023-03-01T03:42:36;10.18;;;9.00;;
70342;SDS011;57767;42.068;24.752;2023-03-01T03:43:38;11.80;;;9.13;;
70342;SDS011;57767;42.068;24.752;2023-03-01T03:44:43;11.00;;;9.15;;
70342;SDS011;57767;42.068;24.752;2023-03-01T03:45:46;11.45;;;8.77;;
70342;SDS011;57767;42.068;24.752;2023-03-01T03:46:48;10.23;;;8.98;;
70342;SDS011;57767;42.068;24.752;2023-03-01T03:47:50;9.80;;;8.80;;
70342;SDS011;57767;42.068;24.752;2023-03-01T03:48:52;9.68;;;8.52;;
70342;SDS011;57767;42.068;24.752;2023-03-01T03:49:53;9.38;;;8.35;;
70342;SDS011;57767;42.068;24.752;2023-03-01T03:50:55;9.77;;;8.23;;
70342;SDS011;57767;42.068;24.752;2023-03-01T03:51:57;8.93;;;7.80;;
70342;SDS011;57767;42.068;24.752;2023-03-01T03:53:03;8.95;;;7.80;;
70342;SDS011;57767;42.068;24.752;2023-03-01T03:54:06;9.15;;;8.25;;
70342;SDS011;57767;42.068;24.752;2023-03-01T03:55:09;9.65;;;8.50;;
70342;SDS011;57767;42.068;24.752;2023-03-01T03:56:12;9.80;;;8.30;;
70342;SDS011;57767;42.068;24.752;2023-03-01T03:57:14;10.68;;;8.25;;
70342;SDS011;57767;42.068;24.752;2023-03-01T03:58:16;8.00;;;7.20;;
70342;SDS011;57767;42.068;24.752;2023-03-01T03:59:21;9.27;;;8.30;;
70342;SDS011;57767;42.068;24.752;2023-03-01T04:00:22;9.05;;;8.13;;
70342;SDS011;57767;42.068;24.752;2023-03-01T04:01:25;24.38;;;16.13;;
70342;SDS011;57767;42.068;24.752;2023-03-01T04:02:26;18.08;;;12.65;;
70342;SDS011;57767;42.068;24.752;2023-03-01T04:03:29;9.65;;;8.55;;
70342;SDS011;57767;42.068;24.752;2023-03-01T04:04:32;10.48;;;9.38;;
70342;SDS011;57767;42.068;24.752;2023-03-01T04:05:33;10.13;;;8.93;;
70342;SDS011;57767;42.068;24.752;2023-03-01T04:06:36;9.50;;;8.20;;
70342;SDS011;57767;42.068;24.752;2023-03-01T04:07:38;10.77;;;8.85;;
70342;SDS011;57767;42.068;24.752;2023-03-01T04:08:40;10.57;;;9.05;;
70342;SDS011;57767;42.068;24.752;2023-03-01T04:09:42;11.02;;;9.80;;
70342;SDS011;57767;42.068;24.752;2023-03-01T04:10:45;11.18;;;8.90;;
70342;SDS011;57767;42.068;24.752;2023-03-01T04:11:49;14.55;;;8.60;;
70342;SDS011;57767;42.068;24.752;2023-03-01T04:12:50;10.68;;;9.27;;
70342;SDS011;57767;42.068;24.752;2023-03-01T04:13:54;10.57;;;8.95;;
70342;SDS011;57767;42.068;24.752;2023-03-01T04:14:58;9.30;;;7.45;;
70342;SDS011;57767;42.068;24.752;2023-03-01T04:15:59;9.40;;;7.00;;
70342;SDS011;57767;42.068;24.752;2023-03-01T04:17:01;8.52;;;7.55;;
70342;SDS011;57767;42.068;24.752;2023-03-01T04:18:06;9.95;;;7.60;;
70342;SDS011;57767;42.068;24.752;2023-03-01T04:19:08;8.23;;;7.07;;
70342;SDS011;57767;42.068;24.752;2023-03-01T04:20:11;9.30;;;6.65;;
70342;SDS011;57767;42.068;24.752;2023-03-01T04:21:18;7.22;;;6.05;;
70342;SDS011;57767;42.068;24.752;2023-03-01T04:22:21;7.25;;;6.55;;
70342;SDS011;57767;42.068;24.752;2023-03-01T04:23:23;9.13;;;7.10;;
70342;SDS011;57767;42.068;24.752;2023-03-01T04:24:25;7.63;;;6.82;;
70342;SDS011;57767;42.068;24.752;2023-03-01T04:25:26;6.85;;;6.15;;
70342;SDS011;57767;42.068;24.752;2023-03-01T04:26:28;8.00;;;6.82;;
70342;SDS011;57767;42.068;24.752;2023-03-01T04:27:31;7.93;;;6.90;;
70342;SDS011;57767;42.068;24.752;2023-03-01T04:28:36;8.20;;;6.93;;
70342;SDS011;57767;42.068;24.752;2023-03-01T04:29:41;6.93;;;6.22;;
70342;SDS011;57767;42.068;24.752;2023-03-01T04:30:43;8.88;;;6.55;;
70342;SDS011;57767;42.068;24.752;2023-03-01T04:31:45;7.55;;;6.70;;
70342;SDS011;57767;42.068;24.752;2023-03-01T04:32:46;8.02;;;6.88;;
70342;SDS011;57767;42.068;24.752;2023-03-01T04:33:49;9.55;;;7.43;;
70342;SDS011;57767;42.068;24.752;2023-03-01T04:34:53;8.48;;;7.43;;
70342;SDS011;57767;42.068;24.752;2023-03-01T04:35:55;7.93;;;7.18;;
70342;SDS011;57767;42.068;24.752;2023-03-01T04:36:57;8.02;;;7.20;;
70342;SDS011;57767;42.068;24.752;2023-03-01T04:37:58;9.07;;;7.57;;
70342;SDS011;57767;42.068;24.752;2023-03-01T04:39:00;8.13;;;7.15;;
70342;SDS011;57767;42.068;24.752;2023-03-01T04:40:13;9.50;;;7.10;;
70342;SDS011;57767;42.068;24.752;2023-03-01T04:41:18;9.15;;;7.05;;
70342;SDS011;57767;42.068;24.752;2023-03-01T04:42:21;10.55;;;7.65;;
70342;SDS011;57767;42.068;24.752;2023-03-01T04:43:23;10.23;;;7.85;;
70342;SDS011;57767;42.068;24.752;2023-03-01T04:44:24;9.00;;;7.80;;
70342;SDS011;57767;42.068;24.752;2023-03-01T04:45:26;8.35;;;7.45;;
70342;SDS011;57767;42.068;24.752;2023-03-01T04:46:29;9.23;;;7.78;;
70342;SDS011;57767;42.068;24.752;2023-03-01T04:47:31;8.45;;;7.57;;
70342;SDS011;57767;42.068;24.752;2023-03-01T04:48:33;8.13;;;7.10;;
70342;SDS011;57767;42.068;24.752;2023-03-01T04:49:35;8.65;;;7.75;;
70342;SDS011;57767;42.068;24.752;2023-03-01T04:50:37;8.45;;;7.05;;
70342;SDS011;57767;42.068;24.752;2023-03-01T04:51:38;10.70;;;7.55;;
70342;SDS011;57767;42.068;24.752;2023-03-01T04:52:40;8.00;;;6.85;;
70342;SDS011;57767;42.068;24.752;2023-03-01T04:53:42;8.32;;;7.53;;
70342;SDS011;57767;42.068;24.752;2023-03-01T04:54:45;11.70;;;7.00;;
70342;SDS011;57767;42.068;24.752;2023-03-01T04:55:47;9.40;;;6.65;;
70342;SDS011;57767;42.068;24.752;2023-03-01T04:56:48;9.35;;;7.18;;
70342;SDS011;57767;42.068;24.752;2023-03-01T04:57:50;8.10;;;7.03;;
70342;SDS011;57767;42.068;24.752;2023-03-01T04:58:54;11.95;;;6.75;;
70342;SDS011;57767;42.068;24.752;2023-03-01T04:59:56;8.32;;;7.45;;
70342;SDS011;57767;42.068;24.752;2023-03-01T05:00:58;9.20;;;7.05;;
70342;SDS011;57767;42.068;24.752;2023-03-01T05:02:00;8.32;;;6.90;;
70342;SDS011;57767;42.068;24.752;2023-03-01T05:03:02;8.50;;;7.15;;
70342;SDS011;57767;42.068;24.752;2023-03-01T05:04:03;9.48;;;7.15;;
70342;SDS011;57767;42.068;24.752;2023-03-01T05:05:06;12.43;;;7.10;;
70342;SDS011;57767;42.068;24.752;2023-03-01T05:06:08;11.25;;;7.63;;
70342;SDS011;57767;42.068;24.752;2023-03-01T05:07:10;8.90;;;7.80;;
70342;SDS011;57767;42.068;24.752;2023-03-01T05:08:14;10.73;;;7.75;;
70342;SDS011;57767;42.068;24.752;2023-03-01T05:09:19;9.20;;;7.93;;
70342;SDS011;57767;42.068;24.752;2023-03-01T05:10:21;9.30;;;8.23;;
70342;SDS011;57767;42.068;24.752;2023-03-01T05:11:23;8.85;;;7.95;;
70342;SDS011;57767;42.068;24.752;2023-03-01T05:12:25;9.75;;;7.65;;
70342;SDS011;57767;42.068;24.752;2023-03-01T05:13:27;10.85;;;9.20;;
70342;SDS011;57767;42.068;24.752;2023-03-01T05:14:30;10.35;;;8.63;;
70342;SDS011;57767;42.068;24.752;2023-03-01T05:15:32;10.10;;;8.20;;
70342;SDS011;57767;42.068;24.752;2023-03-01T05:16:34;11.00;;;9.02;;
70342;SDS011;57767;42.068;24.752;2023-03-01T05:17:38;11.15;;;9.23;;
70342;SDS011;57767;42.068;24.752;2023-03-01T05:18:40;8.70;;;7.47;;
70342;SDS011;57767;42.068;24.752;2023-03-01T05:19:42;10.10;;;7.25;;
70342;SDS011;57767;42.068;24.752;2023-03-01T05:20:43;12.65;;;10.98;;
70342;SDS011;57767;42.068;24.752;2023-03-01T05:21:45;11.07;;;8.88;;
70342;SDS011;57767;42.068;24.752;2023-03-01T05:23:03;12.95;;;8.95;;
70342;SDS011;57767;42.068;24.752;2023-03-01T05:24:06;9.63;;;8.63;;
70342;SDS011;57767;42.068;24.752;2023-03-01T05:25:12;12.63;;;10.50;;
70342;SDS011;57767;42.068;24.752;2023-03-01T05:26:16;13.52;;;10.60;;
70342;SDS011;57767;42.068;24.752;2023-03-01T05:27:34;11.98;;;10.15;;
70342;SDS011;57767;42.068;24.752;2023-03-01T05:28:36;13.07;;;9.38;;
70342;SDS011;57767;42.068;24.752;2023-03-01T05:29:39;12.85;;;9.55;;
70342;SDS011;57767;42.068;24.752;2023-03-01T05:30:41;12.00;;;9.43;;
70342;SDS011;57767;42.068;24.752;2023-03-01T05:31:43;15.40;;;10.40;;
70342;SDS011;57767;42.068;24.752;2023-03-01T05:32:48;13.05;;;9.70;;
70342;SDS011;57767;42.068;24.752;2023-03-01T05:33:51;12.52;;;9.90;;
70342;SDS011;57767;42.068;24.752;2023-03-01T05:34:54;14.68;;;11.20;;
70342;SDS011;57767;42.068;24.752;2023-03-01T05:35:59;12.20;;;10.82;;
70342;SDS011;57767;42.068;24.752;2023-03-01T05:37:02;12.38;;;10.52;;
70342;SDS011;57767;42.068;24.752;2023-03-01T05:38:04;12.38;;;10.68;;
70342;SDS011;57767;42.068;24.752;2023-03-01T05:39:05;16.58;;;11.93;;
70342;SDS011;57767;42.068;24.752;2023-03-01T05:40:08;16.00;;;12.30;;
70342;SDS011;57767;42.068;24.752;2023-03-01T05:41:16;13.70;;;11.60;;
70342;SDS011;57767;42.068;24.752;2023-03-01T05:42:18;15.43;;;12.07;;
70342;SDS011;57767;42.068;24.752;2023-03-01T05:43:21;14.93;;;12.27;;
70342;SDS011;57767;42.068;24.752;2023-03-01T05:44:23;17.13;;;13.18;;
70342;SDS011;57767;42.068;24.752;2023-03-01T05:45:26;16.65;;;12.68;;
70342;SDS011;57767;42.068;24.752;2023-03-01T05:46:28;16.90;;;13.68;;
70342;SDS011;57767;42.068;24.752;2023-03-01T05:47:31;15.15;;;12.45;;
70342;SDS011;57767;42.068;24.752;2023-03-01T05:48:33;14.30;;;11.93;;
70342;SDS011;57767;42.068;24.752;2023-03-01T05:49:34;16.60;;;12.43;;
70342;SDS011;57767;42.068;24.752;2023-03-01T05:50:41;16.08;;;12.50;;
70342;SDS011;57767;42.068;24.752;2023-03-01T05:51:47;15.23;;;12.65;;
70342;SDS011;57767;42.068;24.752;2023-03-01T05:52:51;17.10;;;13.63;;
70342;SDS011;57767;42.068;24.752;2023-03-01T05:53:57;15.98;;;12.82;;
70342;SDS011;57767;42.068;24.752;2023-03-01T05:54:59;16.42;;;12.25;;
70342;SDS011;57767;42.068;24.752;2023-03-01T05:56:03;14.25;;;12.18;;
70342;SDS011;57767;42.068;24.752;2023-03-01T05:57:05;14.30;;;11.98;;
70342;SDS011;57767;42.068;24.752;2023-03-01T05:58:08;13.95;;;11.98;;
70342;SDS011;57767;42.068;24.752;2023-03-01T05:59:17;17.17;;;12.77;;
70342;SDS011;57767;42.068;24.752;2023-03-01T06:00:20;16.30;;;12.63;;
70342;SDS011;57767;42.068;24.752;2023-03-01T06:01:25;13.90;;;11.95;;
70342;SDS011;57767;42.068;24.752;2023-03-01T06:02:27;15.57;;;12.52;;
70342;SDS011;57767;42.068;24.752;2023-03-01T06:03:29;21.85;;;14.82;;
70342;SDS011;57767;42.068;24.752;2023-03-01T06:04:30;16.27;;;11.60;;
70342;SDS011;57767;42.068;24.752;2023-03-01T06:05:32;18.17;;;13.02;;
70342;SDS011;57767;42.068;24.752;2023-03-01T06:06:34;18.02;;;14.63;;
70342;SDS011;57767;42.068;24.752;2023-03-01T06:07:40;17.48;;;13.57;;
70342;SDS011;57767;42.068;24.752;2023-03-01T06:08:42;15.98;;;12.60;;
70342;SDS011;57767;42.068;24.752;2023-03-01T06:09:44;15.35;;;11.93;;
70342;SDS011;57767;42.068;24.752;2023-03-01T06:10:46;17.40;;;13.40;;
70342;SDS011;57767;42.068;24.752;2023-03-01T06:11:48;19.70;;;13.93;;
70342;SDS011;57767;42.068;24.752;2023-03-01T06:12:50;18.65;;;16.65;;
70342;SDS011;57767;42.068;24.752;2023-03-01T06:13:52;15.48;;;12.10;;
70342;SDS011;57767;42.068;24.752;2023-03-01T06:14:54;16.52;;;12.65;;
70342;SDS011;57767;42.068;24.752;2023-03-01T06:15:56;13.73;;;11.10;;
70342;SDS011;57767;42.068;24.752;2023-03-01T06:16:57;13.73;;;12.05;;
70342;SDS011;57767;42.068;24.752;2023-03-01T06:17:59;13.13;;;11.40;;
70342;SDS011;57767;42.068;24.752;2023-03-01T06:19:01;15.88;;;12.20;;
70342;SDS011;57767;42.068;24.752;2023-03-01T06:20:08;13.10;;;11.65;;
70342;SDS011;57767;42.068;24.752;2023-03-01T06:21:14;13.40;;;11.90;;
70342;SDS011;57767;42.068;24.752;2023-03-01T06:22:17;13.82;;;11.25;;
70342;SDS011;57767;42.068;24.752;2023-03-01T06:23:18;15.70;;;12.43;;
70342;SDS011;57767;42.068;24.752;2023-03-01T06:24:20;15.65;;;12.90;;
70342;SDS011;57767;42.068;24.752;2023-03-01T06:25:23;17.10;;;13.15;;